createdAt,value
2018-08-08T00:00:29.213Z,99.90
2018-08-08T00:03:33.391Z,99.90
2018-08-08T00:06:37.676Z,99.90
2018-08-08T00:09:41.929Z,99.90
2018-08-08T00:12:46.247Z,99.90
2018-08-08T00:15:50.413Z,99.90
2018-08-08T00:18:54.877Z,99.90
2018-08-08T00:21:59.448Z,99.90
2018-08-08T00:25:04.090Z,99.90
2018-08-08T00:28:08.338Z,99.90
2018-08-08T00:31:12.629Z,99.90
2018-08-08T00:34:16.792Z,99.90
2018-08-08T00:37:20.937Z,99.90
2018-08-08T00:40:25.163Z,99.90
2018-08-08T00:43:29.474Z,99.90
2018-08-08T00:46:34.243Z,99.90
2018-08-08T00:49:38.526Z,99.90
2018-08-08T00:52:43.144Z,99.90
2018-08-08T00:55:47.325Z,99.90
2018-08-08T00:58:51.517Z,99.90
2018-08-08T01:01:55.710Z,99.90
2018-08-08T01:04:59.943Z,99.90
2018-08-08T01:08:04.768Z,99.90
2018-08-08T01:11:09.887Z,99.90
2018-08-08T01:14:14.054Z,99.90
2018-08-08T01:17:18.446Z,99.90
2018-08-08T01:20:22.645Z,99.90
2018-08-08T01:23:26.937Z,99.90
2018-08-08T01:26:31.100Z,99.90
2018-08-08T01:29:35.612Z,99.90
2018-08-08T01:32:40.655Z,99.90
2018-08-08T01:35:44.925Z,99.90
2018-08-08T01:38:49.093Z,99.90
2018-08-08T01:41:53.323Z,99.90
2018-08-08T01:44:57.551Z,99.90
2018-08-08T01:48:02.276Z,99.90
2018-08-08T01:51:06.787Z,99.90
2018-08-08T01:54:11.018Z,99.90
2018-08-08T01:57:15.205Z,99.90
2018-08-08T02:00:19.462Z,99.90
2018-08-08T02:03:23.830Z,99.90
2018-08-08T02:09:31.980Z,99.00
2018-08-08T02:12:36.425Z,98.30
2018-08-08T02:15:40.925Z,98.40
2018-08-08T02:18:45.199Z,98.10
2018-08-08T02:21:49.469Z,98.10
2018-08-08T02:24:53.968Z,97.70
2018-08-08T02:27:58.222Z,97.50
2018-08-08T02:31:02.423Z,97.50
2018-08-08T02:34:06.901Z,97.30
2018-08-08T02:37:11.354Z,97.20
2018-08-08T02:40:15.586Z,97.40
2018-08-08T02:43:19.853Z,97.50
2018-08-08T02:46:24.729Z,98.10
2018-08-08T02:49:29.179Z,98.20
2018-08-08T02:52:33.453Z,98.20
2018-08-08T02:55:37.589Z,98.90
2018-08-08T02:58:41.909Z,98.90
2018-08-08T03:01:46.109Z,98.70
2018-08-08T03:04:50.322Z,98.60
2018-08-08T03:07:54.582Z,98.30
2018-08-08T03:10:59.081Z,98.60
2018-08-08T03:14:03.977Z,98.60
2018-08-08T03:17:09.611Z,99.00
2018-08-08T03:20:15.732Z,98.60
2018-08-08T03:23:19.982Z,99.10
2018-08-08T03:26:24.248Z,99.90
2018-08-08T03:29:28.697Z,99.90
2018-08-08T03:32:33.050Z,99.90
2018-08-08T03:35:37.180Z,99.90
2018-08-08T03:38:41.705Z,99.90
2018-08-08T03:41:46.453Z,99.90
2018-08-08T03:44:51.058Z,99.90
2018-08-08T03:47:55.893Z,99.90
2018-08-08T03:51:00.065Z,99.90
2018-08-08T03:54:04.875Z,99.90
2018-08-08T03:57:09.084Z,99.90
2018-08-08T04:00:15.873Z,99.90
2018-08-08T04:03:21.007Z,99.90
2018-08-08T04:06:25.608Z,99.90
2018-08-08T04:09:29.986Z,99.90
2018-08-08T04:12:34.730Z,99.90
2018-08-08T04:15:39.403Z,99.90
2018-08-08T04:18:43.804Z,99.90
2018-08-08T04:21:47.977Z,99.90
2018-08-08T04:24:52.304Z,99.90
2018-08-08T04:27:56.553Z,99.90
2018-08-08T04:31:00.714Z,99.90
2018-08-08T04:34:04.915Z,99.80
2018-08-08T04:37:10.214Z,99.80
2018-08-08T04:40:17.010Z,99.70
2018-08-08T04:43:21.576Z,99.30
2018-08-08T04:46:26.042Z,99.10
2018-08-08T04:49:30.527Z,98.90
2018-08-08T04:52:35.087Z,98.90
2018-08-08T04:55:39.737Z,99.30
2018-08-08T04:58:43.900Z,98.80
2018-08-08T05:01:48.152Z,98.90
2018-08-08T05:04:52.438Z,98.50
2018-08-08T05:07:57.051Z,99.10
2018-08-08T05:11:01.779Z,99.60
2018-08-08T05:14:06.791Z,99.80
2018-08-08T05:17:56.380Z,98.70
2018-08-08T05:21:00.961Z,98.20
2018-08-08T05:24:06.026Z,97.60
2018-08-08T05:27:13.307Z,97.80
2018-08-08T05:30:19.575Z,97.50
2018-08-08T05:33:24.116Z,97.40
2018-08-08T05:36:28.713Z,97.10
2018-08-08T05:39:33.073Z,96.70
2018-08-08T05:42:37.700Z,96.80
2018-08-08T05:45:42.516Z,96.80
2018-08-08T05:48:46.807Z,96.70
2018-08-08T05:51:51.334Z,96.50
2018-08-08T05:54:56.041Z,96.40
2018-08-08T05:58:00.677Z,96.90
2018-08-08T06:01:06.060Z,97.50
2018-08-08T06:04:10.676Z,96.50
2018-08-08T06:07:15.230Z,96.90
2018-08-08T06:10:19.360Z,95.80
2018-08-08T06:13:24.010Z,96.10
2018-08-08T06:16:28.137Z,95.10
2018-08-08T06:19:32.515Z,95.20
2018-08-08T06:22:36.782Z,94.80
2018-08-08T06:25:41.068Z,94.60
2018-08-08T06:28:45.311Z,95.30
2018-08-08T06:31:49.496Z,94.10
2018-08-08T06:34:53.723Z,93.10
2018-08-08T06:37:58.726Z,91.20
2018-08-08T06:41:02.936Z,88.90
2018-08-08T06:44:07.350Z,84.90
2018-08-08T06:47:11.471Z,80.80
2018-08-08T06:50:16.330Z,79.10
2018-08-08T06:53:20.543Z,79.10
2018-08-08T06:56:24.711Z,80.10
2018-08-08T06:59:28.908Z,79.80
2018-08-08T07:02:33.239Z,81.10
2018-08-08T07:05:37.467Z,81.70
2018-08-08T07:08:41.667Z,77.80
2018-08-08T07:11:45.872Z,72.70
2018-08-08T07:14:50.302Z,68.70
2018-08-08T07:17:54.487Z,69.10
2018-08-08T07:20:59.379Z,66.60
2018-08-08T07:24:04.077Z,64.90
2018-08-08T07:27:08.520Z,63.10
2018-08-08T07:30:14.382Z,64.10
2018-08-08T07:33:18.553Z,67.20
2018-08-08T07:36:22.797Z,69.40
2018-08-08T07:39:27.316Z,65.80
2018-08-08T07:42:31.472Z,62.50
2018-08-08T07:45:35.684Z,59.70
2018-08-08T07:48:39.877Z,57.50
2018-08-08T07:51:44.032Z,58.30
2018-08-08T07:54:48.216Z,57.10
2018-08-08T07:57:52.668Z,55.60
2018-08-08T08:00:57.113Z,56.00
2018-08-08T08:04:01.363Z,55.00
2018-08-08T08:07:05.865Z,54.20
2018-08-08T08:10:10.681Z,56.10
2018-08-08T08:13:14.929Z,59.40
2018-08-08T08:16:19.100Z,62.00
2018-08-08T08:19:23.423Z,62.90
2018-08-08T08:22:27.700Z,64.20
2018-08-08T08:25:31.924Z,64.50
2018-08-08T08:28:36.605Z,66.40
2018-08-08T08:31:41.356Z,67.30
2018-08-08T08:34:45.923Z,67.70
2018-08-08T08:37:50.726Z,68.20
2018-08-08T08:40:55.107Z,68.10
2018-08-08T08:43:59.507Z,69.10
2018-08-08T08:47:03.721Z,69.40
2018-08-08T08:50:08.240Z,70.80
2018-08-08T08:53:12.759Z,71.40
2018-08-08T08:56:16.940Z,73.50
2018-08-08T08:59:21.140Z,74.70
2018-08-08T09:02:25.647Z,73.10
2018-08-08T09:05:29.726Z,69.20
2018-08-08T09:08:34.008Z,69.60
2018-08-08T09:11:38.410Z,66.50
2018-08-08T09:14:42.734Z,66.20
2018-08-08T09:17:47.201Z,63.80
2018-08-08T09:20:51.436Z,59.50
2018-08-08T09:23:55.801Z,57.80
2018-08-08T09:27:00.293Z,57.00
2018-08-08T09:30:08.681Z,55.30
2018-08-08T09:33:18.387Z,56.00
2018-08-08T09:36:22.669Z,56.50
2018-08-08T09:39:27.166Z,53.80
2018-08-08T09:42:31.365Z,52.20
2018-08-08T09:45:35.614Z,52.10
2018-08-08T09:48:40.085Z,54.00
2018-08-08T09:51:44.472Z,54.00
2018-08-08T09:54:48.886Z,51.40
2018-08-08T09:57:53.764Z,50.90
2018-08-08T10:01:03.272Z,50.40
2018-08-08T10:04:12.692Z,47.30
2018-08-08T10:07:17.159Z,46.60
2018-08-08T10:10:21.393Z,47.80
2018-08-08T10:13:25.871Z,47.00
2018-08-08T10:16:36.690Z,46.10
2018-08-08T10:19:41.090Z,46.10
2018-08-08T10:22:45.336Z,45.00
2018-08-08T10:25:49.610Z,44.50
2018-08-08T10:28:54.092Z,43.50
2018-08-08T10:31:58.441Z,44.30
2018-08-08T10:35:02.791Z,44.50
2018-08-08T10:38:07.085Z,44.10
2018-08-08T10:41:11.436Z,42.60
2018-08-08T10:44:15.777Z,41.90
2018-08-08T10:47:20.064Z,42.60
2018-08-08T10:50:24.312Z,42.10
2018-08-08T10:53:28.636Z,43.00
2018-08-08T10:56:32.960Z,43.40
2018-08-08T10:59:37.070Z,42.90
2018-08-08T11:02:41.456Z,43.30
2018-08-08T11:05:45.820Z,42.60
2018-08-08T11:08:50.216Z,43.50
2018-08-08T11:11:54.585Z,41.80
2018-08-08T11:14:58.981Z,41.70
2018-08-08T11:18:03.496Z,43.20
2018-08-08T11:21:07.806Z,43.80
2018-08-08T11:24:12.497Z,43.40
2018-08-08T11:27:17.591Z,42.00
2018-08-08T11:30:22.086Z,42.60
2018-08-08T11:33:26.485Z,41.80
2018-08-08T11:36:30.603Z,42.50
2018-08-08T11:39:34.921Z,44.50
2018-08-08T11:42:39.330Z,44.30
2018-08-08T11:45:43.501Z,44.40
2018-08-08T11:48:48.008Z,45.60
2018-08-08T11:51:52.323Z,47.00
2018-08-08T11:54:57.005Z,47.70
2018-08-08T11:58:01.370Z,48.60
2018-08-08T12:01:05.573Z,48.40
2018-08-08T12:04:10.262Z,49.30
2018-08-08T12:07:14.509Z,49.60
2018-08-08T12:10:18.811Z,49.20
2018-08-08T12:13:24.335Z,49.10
2018-08-08T12:16:28.639Z,49.10
2018-08-08T12:19:32.902Z,50.70
2018-08-08T12:22:37.147Z,51.00
2018-08-08T12:25:41.874Z,51.10
2018-08-08T12:28:46.714Z,51.00
2018-08-08T12:31:50.935Z,49.60
2018-08-08T12:34:55.350Z,50.20
2018-08-08T12:38:00.095Z,50.10
2018-08-08T12:41:04.675Z,50.20
2018-08-08T12:44:09.031Z,49.90
2018-08-08T12:47:13.583Z,49.60
2018-08-08T12:50:17.963Z,49.50
2018-08-08T12:53:22.472Z,48.60
2018-08-08T12:56:27.010Z,48.50
2018-08-08T12:59:31.169Z,48.30
2018-08-08T13:02:35.509Z,48.80
2018-08-08T13:05:40.512Z,49.40
2018-08-08T13:08:44.690Z,49.50
2018-08-08T13:11:48.916Z,50.40
2018-08-08T13:14:53.065Z,50.60
2018-08-08T13:17:57.357Z,51.70
2018-08-08T13:21:01.731Z,52.20
2018-08-08T13:24:06.080Z,52.60
2018-08-08T13:27:10.253Z,53.00
2018-08-08T13:30:14.700Z,53.40
2018-08-08T13:33:18.998Z,53.60
2018-08-08T13:36:23.662Z,53.20
2018-08-08T13:39:27.917Z,53.50
2018-08-08T13:42:32.146Z,54.30
2018-08-08T13:45:36.392Z,54.50
2018-08-08T13:48:40.598Z,54.50
2018-08-08T13:51:44.747Z,54.60
2018-08-08T13:54:48.917Z,54.40
2018-08-08T13:57:53.124Z,54.80
2018-08-08T14:00:57.699Z,55.50
2018-08-08T14:04:01.905Z,55.50
2018-08-08T14:07:06.333Z,54.90
2018-08-08T14:10:10.788Z,54.80
2018-08-08T14:13:14.946Z,54.60
2018-08-08T14:16:19.204Z,54.60
2018-08-08T14:19:23.359Z,54.70
2018-08-08T14:22:27.544Z,54.90
2018-08-08T14:25:31.851Z,55.40
2018-08-08T14:28:36.461Z,54.80
2018-08-08T14:31:40.660Z,54.50
2018-08-08T14:34:45.127Z,54.70
2018-08-08T14:37:49.418Z,54.40
2018-08-08T14:40:53.558Z,54.60
2018-08-08T14:43:57.968Z,54.60
2018-08-08T14:47:02.376Z,55.00
2018-08-08T14:50:07.719Z,54.60
2018-08-08T14:53:11.984Z,55.60
2018-08-08T14:56:16.086Z,55.20
2018-08-08T14:59:20.282Z,54.80
2018-08-08T15:02:24.519Z,55.30
2018-08-08T15:05:28.794Z,55.10
2018-08-08T15:08:33.031Z,54.90
2018-08-08T15:11:37.273Z,55.10
2018-08-08T15:14:41.434Z,55.50
2018-08-08T15:17:45.711Z,54.80
2018-08-08T15:20:50.411Z,55.30
2018-08-08T15:23:54.724Z,55.40
2018-08-08T15:26:59.349Z,56.10
2018-08-08T15:30:03.624Z,55.80
2018-08-08T15:33:07.793Z,56.10
2018-08-08T15:36:11.985Z,56.60
2018-08-08T15:39:17.254Z,56.90
2018-08-08T15:42:21.483Z,56.60
2018-08-08T15:45:25.623Z,56.60
2018-08-08T15:48:29.880Z,56.60
2018-08-08T15:51:34.294Z,56.90
2018-08-08T15:54:38.479Z,56.60
2018-08-08T15:57:42.760Z,56.30
2018-08-08T16:00:46.955Z,55.90
2018-08-08T16:03:51.577Z,55.30
2018-08-08T16:06:55.883Z,55.10
2018-08-08T16:10:00.072Z,55.80
2018-08-08T16:13:04.331Z,56.00
2018-08-08T16:16:08.524Z,56.10
2018-08-08T16:19:12.676Z,55.70
2018-08-08T16:22:17.891Z,56.20
2018-08-08T16:25:22.087Z,56.70
2018-08-08T16:28:26.245Z,56.60
2018-08-08T16:31:30.413Z,56.60
2018-08-08T16:34:34.824Z,56.80
2018-08-08T16:37:39.057Z,56.20
2018-08-08T16:40:43.348Z,55.00
2018-08-08T16:43:47.839Z,55.20
2018-08-08T16:46:52.212Z,55.60
2018-08-08T16:50:03.483Z,55.20
2018-08-08T16:53:07.797Z,55.20
2018-08-08T16:56:12.442Z,54.70
2018-08-08T16:59:16.732Z,54.30
2018-08-08T17:02:21.099Z,54.90
2018-08-08T17:05:25.201Z,53.40
2018-08-08T17:08:29.432Z,54.30
2018-08-08T17:11:33.634Z,54.80
2018-08-08T17:14:38.040Z,54.70
2018-08-08T17:17:42.223Z,55.00
2018-08-08T17:20:46.648Z,55.40
2018-08-08T17:23:50.816Z,55.90
2018-08-08T17:26:55.047Z,56.00
2018-08-08T17:29:59.174Z,56.90
2018-08-08T17:33:03.398Z,57.30
2018-08-08T17:36:07.659Z,57.20
2018-08-08T17:39:11.834Z,57.50
2018-08-08T17:42:16.227Z,57.60
2018-08-08T17:45:20.427Z,58.10
2018-08-08T17:48:24.640Z,58.30
2018-08-08T17:51:28.828Z,59.30
2018-08-08T17:54:33.118Z,59.10
2018-08-08T17:57:37.286Z,59.60
2018-08-08T18:00:42.145Z,60.70
2018-08-08T18:03:46.286Z,60.80
2018-08-08T18:06:50.467Z,62.10
2018-08-08T18:09:54.698Z,62.80
2018-08-08T18:12:58.889Z,63.00
2018-08-08T18:16:03.056Z,63.90
2018-08-08T18:19:07.248Z,64.30
2018-08-08T18:22:11.526Z,64.80
2018-08-08T18:25:16.158Z,65.50
2018-08-08T18:28:20.315Z,66.20
2018-08-08T18:31:24.454Z,66.80
2018-08-08T18:34:28.646Z,67.00
2018-08-08T18:37:33.836Z,67.70
2018-08-08T18:40:38.025Z,68.30
2018-08-08T18:43:42.282Z,69.50
2018-08-08T18:46:46.414Z,69.40
2018-08-08T18:49:51.416Z,70.30
2018-08-08T18:52:55.565Z,70.70
2018-08-08T18:55:59.785Z,70.90
2018-08-08T18:59:03.961Z,71.70
2018-08-08T19:02:08.223Z,72.10
2018-08-08T19:05:12.366Z,72.50
2018-08-08T19:08:16.501Z,73.10
2018-08-08T19:11:20.670Z,74.00
2018-08-08T19:14:24.811Z,74.50
2018-08-08T19:17:29.053Z,74.80
2018-08-08T19:20:33.354Z,75.60
2018-08-08T19:23:37.504Z,75.90
2018-08-08T19:26:41.854Z,76.50
2018-08-08T19:29:46.319Z,75.80
2018-08-08T19:32:50.486Z,76.20
2018-08-08T19:35:55.147Z,76.60
2018-08-08T19:38:59.427Z,77.40
2018-08-08T19:42:03.648Z,78.70
2018-08-08T19:45:07.804Z,79.20
2018-08-08T19:48:11.941Z,79.90
2018-08-08T19:51:16.080Z,80.70
2018-08-08T19:54:20.263Z,81.00
2018-08-08T19:57:24.394Z,81.30
2018-08-08T20:00:28.512Z,79.70
2018-08-08T20:03:33.315Z,78.40
2018-08-08T20:06:37.463Z,78.10
2018-08-08T20:09:41.598Z,79.70
2018-08-08T20:12:46.225Z,79.00
2018-08-08T20:15:52.897Z,79.70
2018-08-08T20:18:58.274Z,81.20
2018-08-08T20:22:03.761Z,83.30
2018-08-08T20:25:08.238Z,85.30
2018-08-08T20:28:12.677Z,86.50
2018-08-08T20:31:16.769Z,87.00
2018-08-08T20:34:20.944Z,87.80
2018-08-08T20:37:25.127Z,86.90
2018-08-08T20:40:29.280Z,88.10
2018-08-08T20:43:33.608Z,88.00
2018-08-08T20:46:37.767Z,88.60
2018-08-08T20:49:41.882Z,90.00
2018-08-08T20:52:46.026Z,90.10
2018-08-08T20:55:50.259Z,90.60
2018-08-08T20:58:54.361Z,91.20
2018-08-08T21:01:58.487Z,91.20
2018-08-08T21:05:02.812Z,91.80
2018-08-08T21:08:07.344Z,92.10
2018-08-08T21:11:11.809Z,92.30
2018-08-08T21:14:16.169Z,92.70
2018-08-08T21:17:20.565Z,93.50
2018-08-08T21:20:24.873Z,93.40
2018-08-08T21:23:29.352Z,93.70
2018-08-08T21:26:33.715Z,94.40
2018-08-08T21:29:37.872Z,94.50
2018-08-08T21:32:42.048Z,95.00
2018-08-08T21:35:46.995Z,95.10
2018-08-08T21:38:51.172Z,95.60
2018-08-08T21:41:55.822Z,96.00
2018-08-08T21:45:00.287Z,95.90
2018-08-08T21:48:04.478Z,96.10
2018-08-08T21:51:08.642Z,97.00
2018-08-08T21:54:24.279Z,97.20
2018-08-08T21:58:43.532Z,96.90
2018-08-08T22:01:58.856Z,97.50
2018-08-08T22:05:14.312Z,97.80
2018-08-08T22:08:29.952Z,98.00
2018-08-08T22:11:47.313Z,98.20
2018-08-08T22:15:02.693Z,98.40
2018-08-08T22:18:18.243Z,98.70
2018-08-08T22:21:22.928Z,98.80
2018-08-08T22:24:27.609Z,99.50
2018-08-08T22:27:32.117Z,99.40
2018-08-08T22:30:36.443Z,99.90
2018-08-08T22:33:40.741Z,99.60
2018-08-08T22:36:45.119Z,99.90
2018-08-08T22:39:49.665Z,99.90
2018-08-08T22:42:53.988Z,99.90
2018-08-08T22:45:58.491Z,99.90
2018-08-08T22:49:02.629Z,99.90
2018-08-08T22:52:07.090Z,99.90
2018-08-08T22:55:11.584Z,99.90
2018-08-08T22:58:15.707Z,99.90
2018-08-08T23:01:19.889Z,99.90
2018-08-08T23:04:24.057Z,99.90
2018-08-08T23:07:28.216Z,99.90
2018-08-08T23:10:33.450Z,99.90
2018-08-08T23:13:37.607Z,99.90
2018-08-08T23:16:41.762Z,99.90
2018-08-08T23:19:46.405Z,99.90
2018-08-08T23:22:55.180Z,99.90
2018-08-08T23:25:59.482Z,99.90
2018-08-08T23:29:04.677Z,99.90
2018-08-08T23:32:08.919Z,99.90
2018-08-08T23:35:13.420Z,99.90
2018-08-08T23:38:17.694Z,99.90
2018-08-08T23:41:21.894Z,99.90
2018-08-08T23:44:26.185Z,99.90
2018-08-08T23:47:30.581Z,99.90
2018-08-08T23:50:34.859Z,99.90
2018-08-08T23:53:39.741Z,99.90
2018-08-08T23:56:44.079Z,99.90
2018-08-08T23:59:48.348Z,99.90
